2A0

Mark Anton Airport

Dayton, Tennessee, USA
METAR K2A0 181315Z AUTO 00000KT M1/4SM FG OVC002 07/07 A3011 RMK A01
Observed Flight Rules
Jan-18 @ 13:15 UTC (32 minutes ago) Instrument Flight Rules
Visibility Clouds Conditions
1/4 miles
  • Overcast at 200' AGL
  • Fog
Temperatures Readings
Current 7°C / 45°F
Dewpoint 7°C / 45°F
Humidity 100%
Altimeter 30.11" Hg
Pressure 1019.62 hPa
Elevation 219
METAR K2A0 181315Z AUTO 00000KT M1/4SM FG OVC002 07/07 A3011 RMK A01
Observed Flight Rules
Jan-18 @ 13:15 UTC
(32 minutes ago)
LIFR
Clouds
  • Overcast at 200' AGL
Conditions
  • Fog
Temperature Dewpoint
7°C / 45°F 7°C / 45°F
Humidity Altimeter Pressure
100% 30.11" Hg 1019.62 hPa